Time;durP1;ratioP1;P1;durP2;ratioP2;P2;SDS_P1;SDS_P2;PMS_P1;PMS_P2;Temp;Humidity;BMP_temperature;BMP_pressure;BME280_temperature;BME280_humidity;BME280_pressure;Samples;Min_cycle;Max_cycle;Signal;HPM_P1;HPM_P2
2022/07/29 00:01:15;;;;;;;3.92;1.00;;;;;;;17.38;62.80;68700.38;4997222;28;20277;-76
2022/07/29 00:03:41;;;;;;;5.65;1.35;;;;;;;;;;4989720;28;20035;-77
2022/07/29 00:06:06;;;;;;;2.28;1.30;;;;;;;17.36;62.96;68695.94;4992150;28;20042;-78
2022/07/29 00:08:31;;;;;;;6.47;1.48;;;;;;;;;;4991411;28;20041;-78
2022/07/29 00:10:57;;;;;;;2.63;1.10;;;;;;;17.29;63.10;68696.03;4994071;28;20041;-77
2022/07/29 00:13:22;;;;;;;2.67;1.00;;;;;;;;;;4998125;28;20467;-79
2022/07/29 00:15:47;;;;;;;4.68;1.75;;;;;;;17.24;63.27;68684.97;4992546;28;20093;-77
2022/07/29 00:18:13;;;;;;;7.18;1.45;;;;;;;17.22;63.30;68687.47;4976773;28;20055;-79
2022/07/29 00:20:38;;;;;;;3.15;1.33;;;;;;;17.21;63.63;68686.91;4993770;28;20049;-78
2022/07/29 00:23:03;;;;;;;4.25;1.33;;;;;;;;;;4994472;28;20141;-78
2022/07/29 00:25:28;;;;;;;2.67;1.15;;;;;;;;;;4992161;28;20045;-79
2022/07/29 00:27:54;;;;;;;4.70;1.30;;;;;;;17.13;63.74;68677.78;4993589;28;20565;-79
2022/07/29 00:30:19;;;;;;;5.28;1.38;;;;;;;17.14;63.93;68674.09;4994507;28;20701;-79
2022/07/29 00:32:45;;;;;;;2.83;1.13;;;;;;;17.13;64.21;68672.41;4997309;28;20522;-79
2022/07/29 00:37:54;;;;;;;3.63;1.30;;;;;;;;;;4993338;28;20037;-79
2022/07/29 00:40:20;;;;;;;3.17;1.30;;;;;;;;;;4991378;28;20117;-78
2022/07/29 00:42:46;;;;;;;4.70;1.10;;;;;;;;;;4978709;28;20320;-78
2022/07/29 00:45:12;;;;;;;4.13;1.30;;;;;;;17.02;64.47;68659.84;4978510;28;20050;-79
2022/07/29 00:47:38;;;;;;;4.22;1.60;;;;;;;17.10;65.22;68674.38;4993859;28;20042;-78
2022/07/29 00:50:05;;;;;;;2.22;1.10;;;;;;;17.06;64.43;68669.78;4990937;28;20107;-79
2022/07/29 00:52:30;;;;;;;5.28;1.40;;;;;;;;;;4986755;28;20050;-77
2022/07/29 00:54:56;;;;;;;3.95;1.25;;;;;;;;;;4992122;28;20034;-79
2022/07/29 00:57:21;;;;;;;5.13;1.60;;;;;;;;;;4977099;28;20335;-78
2022/07/29 00:59:46;;;;;;;3.53;1.40;;;;;;;;;;4991671;28;20572;-77
2022/07/29 01:02:12;;;;;;;4.53;1.40;;;;;;;16.81;65.04;68645.13;4994579;28;20078;-79
2022/07/29 01:04:37;;;;;;;3.35;1.05;;;;;;;;;;4998365;28;20273;-77
2022/07/29 01:07:03;;;;;;;3.10;1.23;;;;;;;16.73;65.49;68633.28;4975080;28;20050;-78
2022/07/29 01:09:29;;;;;;;1.48;1.00;;;;;;;;;;4991558;28;20092;-79
2022/07/29 01:11:55;;;;;;;3.65;1.30;;;;;;;16.68;65.51;68628.13;4993608;28;20537;-79
2022/07/29 01:14:20;;;;;;;5.40;1.25;;;;;;;;;;4977308;28;20038;-79
2022/07/29 01:16:51;;;;;;;2.83;1.27;;;;;;;;;;4973518;28;20049;-79
2022/07/29 01:19:46;;;;;;;6.03;1.48;;;;;;;16.59;65.91;68617.31;4992243;28;20164;-79
2022/07/29 01:22:17;;;;;;;3.88;1.50;;;;;;;;;;4994039;28;20073;-79
2022/07/29 01:24:56;;;;;;;6.05;1.50;;;;;;;;;;4976338;28;20035;-78
2022/07/29 01:27:59;;;;;;;5.53;1.73;;;;;;;16.45;66.37;68602.47;4953932;28;20062;-78
2022/07/29 01:30:25;;;;;;;2.35;1.38;;;;;;;;;;4977931;28;20117;-79
2022/07/29 01:32:58;;;;;;;3.88;1.42;;;;;;;16.43;66.30;68594.28;4996950;28;20046;-79
2022/07/29 01:35:27;;;;;;;1.85;1.23;;;;;;;16.43;66.17;68600.22;4997198;28;20050;-79
2022/07/29 01:38:05;;;;;;;3.60;1.30;;;;;;;16.42;66.33;68593.13;4994082;28;20568;-79
2022/07/29 01:40:58;;;;;;;4.95;1.58;;;;;;;16.44;66.14;68600.78;4994328;28;20084;-79
2022/07/29 01:43:31;;;;;;;3.92;1.42;;;;;;;16.33;66.47;68588.25;4954998;28;20324;-80
2022/07/29 01:46:01;;;;;;;2.78;1.25;;;;;;;16.33;66.59;68588.25;4994990;28;20092;-79
2022/07/29 01:48:41;;;;;;;5.20;1.48;;;;;;;16.28;66.79;68582.53;4993386;28;20046;-79
2022/07/29 01:51:19;;;;;;;2.83;1.42;;;;;;;16.29;66.74;68583.69;4995110;28;20053;-80
2022/07/29 01:53:51;;;;;;;5.88;1.52;;;;;;;16.28;66.93;68582.53;4993720;28;20053;-80
2022/07/29 01:56:19;;;;;;;3.10;1.40;;;;;;;16.24;67.18;68578.56;4989599;28;20057;-79
2022/07/29 01:58:45;;;;;;;4.22;1.50;;;;;;;;;;4990325;28;20054;-79
2022/07/29 02:01:13;;;;;;;4.47;1.60;;;;;;;16.19;67.25;68567.47;4980029;28;20034;-79
2022/07/29 02:03:41;;;;;;;5.43;1.65;;;;;;;16.09;67.75;68562.03;4975889;28;20157;-79
2022/07/29 02:06:09;;;;;;;3.65;1.50;;;;;;;16.11;67.92;68558.34;4999652;28;20959;-79
2022/07/29 02:08:37;;;;;;;6.23;1.67;;;;;;;16.09;67.72;68556.09;4972535;28;20034;-79
2022/07/29 02:11:05;;;;;;;4.53;1.30;;;;;;;16.07;67.97;68553.81;4982469;28;20293;-79
2022/07/29 02:13:33;;;;;;;3.05;1.23;;;;;;;16.10;67.84;68557.22;4974048;28;20061;-79
2022/07/29 02:15:59;;;;;;;5.18;1.52;;;;;;;;;;4990694;28;20134;-79
2022/07/29 02:18:27;;;;;;;6.72;1.70;;;;;;;16.00;67.97;68552.34;4993847;28;20061;-79
2022/07/29 02:20:56;;;;;;;5.13;1.65;;;;;;;15.99;68.01;68553.88;4991149;28;20054;-79
2022/07/29 02:23:23;;;;;;;4.97;1.65;;;;;;;15.95;68.32;68546.63;4991704;28;20130;-79
2022/07/29 02:25:53;;;;;;;3.50;1.50;;;;;;;;;;4970204;28;20113;-79
2022/07/29 02:28:19;;;;;;;4.45;1.48;;;;;;;;;;4990392;28;20038;-79
2022/07/29 02:30:46;;;;;;;3.00;1.40;;;;;;;15.86;68.80;68536.38;4974274;28;20461;-79
2022/07/29 02:33:12;;;;;;;5.95;1.67;;;;;;;;;;4992383;28;20724;-79
2022/07/29 02:35:41;;;;;;;6.18;2.20;;;;;;;15.79;69.23;68528.97;4995699;28;20520;-79
2022/07/29 02:40:53;;;;;;;3.97;1.60;;;;;;;15.75;69.51;68523.84;4996256;28;20100;-79
2022/07/29 02:43:21;;;;;;;7.35;1.67;;;;;;;15.77;69.44;68521.34;4991908;28;20316;-79
2022/07/29 02:45:51;;;;;;;3.60;1.77;;;;;;;15.73;69.44;68521.56;4990308;28;20046;-79
2022/07/29 02:48:18;;;;;;;5.03;1.90;;;;;;;15.71;69.40;68519.88;4995462;28;20115;-79
2022/07/29 02:50:55;;;;;;;4.35;1.92;;;;;;;15.72;69.73;68520.44;4988898;28;20038;-79
2022/07/29 02:53:24;;;;;;;3.58;1.85;;;;;;;15.63;69.94;68515.53;4967770;28;20105;-79
2022/07/29 02:55:57;;;;;;;3.78;1.77;;;;;;;15.58;69.77;68505.59;4988051;28;20139;-79
2022/07/29 02:58:22;;;;;;;5.65;1.65;;;;;;;;;;4987881;28;20057;-79
2022/07/29 03:00:51;;;;;;;3.63;1.80;;;;;;;15.66;69.82;68514.13;4987161;28;20034;-79
2022/07/29 03:03:18;;;;;;;4.88;2.00;;;;;;;15.59;70.19;68506.16;4983353;28;20062;-79
2022/07/29 03:05:44;;;;;;;4.47;2.00;;;;;;;;;;4986144;28;20113;-79
2022/07/29 03:08:11;;;;;;;5.97;2.03;;;;;;;15.64;70.35;68511.28;4986935;28;20057;-79
2022/07/29 03:10:39;;;;;;;5.32;2.10;;;;;;;15.55;70.19;68496.81;4987899;28;20035;-79
2022/07/29 03:13:07;;;;;;;3.20;2.20;;;;;;;15.62;69.97;68509.56;4989113;28;20050;-79
2022/07/29 03:15:33;;;;;;;4.20;1.88;;;;;;;15.64;69.79;68511.28;4987550;28;20039;-79
2022/07/29 03:17:59;;;;;;;4.75;2.00;;;;;;;;;;4969193;28;20106;-79
2022/07/29 03:20:26;;;;;;;4.85;1.92;;;;;;;15.55;70.14;68504.84;4984084;28;20054;-79
2022/07/29 03:22:52;;;;;;;3.78;2.53;;;;;;;15.53;70.17;68499.88;4988689;28;20038;-79
2022/07/29 03:25:19;;;;;;;4.50;2.17;;;;;;;15.61;69.81;68507.88;4989373;28;20073;-80
2022/07/29 03:27:46;;;;;;;4.50;2.05;;;;;;;15.62;70.07;68509.00;4972581;28;20077;-79
2022/07/29 03:30:11;;;;;;;3.83;1.88;;;;;;;;;;4983641;28;20060;-79
2022/07/29 03:32:37;;;;;;;5.28;1.95;;;;;;;;;;4993881;28;20133;-80
2022/07/29 03:35:04;;;;;;;3.10;1.80;;;;;;;15.54;70.25;68501.03;4985411;28;20042;-80
2022/07/29 03:37:33;;;;;;;3.85;2.00;;;;;;;15.53;70.20;68502.56;4991626;28;20581;-80
2022/07/29 03:40:01;;;;;;;4.43;2.28;;;;;;;15.45;70.40;68485.41;4977934;28;20376;-80
2022/07/29 03:42:32;;;;;;;3.95;2.15;;;;;;;15.32;71.11;68475.97;4996193;28;20053;-80
2022/07/29 03:45:07;;;;;;;5.60;2.33;;;;;;;15.37;70.62;68481.66;4978939;28;20038;-81
2022/07/29 03:47:36;;;;;;;5.63;2.20;;;;;;;15.31;71.03;68474.84;4981748;28;20038;-80
2022/07/29 03:50:06;;;;;;;4.72;2.17;;;;;;;15.21;71.68;68466.13;4985337;28;20413;-80
2022/07/29 03:52:32;;;;;;;6.32;2.20;;;;;;;15.26;71.48;68464.34;4995006;28;20046;-80
2022/07/29 03:54:58;;;;;;;5.10;2.05;;;;;;;15.40;71.02;68485.09;4975805;28;20042;-80
2022/07/29 03:57:27;;;;;;;5.22;2.65;;;;;;;;;;4994971;28;20049;-80
2022/07/29 03:59:54;;;;;;;5.07;2.35;;;;;;;15.30;71.36;68476.94;4994634;28;20068;-79
2022/07/29 04:02:19;;;;;;;6.15;2.40;;;;;;;;;;4983310;28;20149;-79
2022/07/29 04:04:45;;;;;;;4.35;2.30;;;;;;;;;;4986095;28;20498;-79
2022/07/29 04:07:14;;;;;;;5.03;2.50;;;;;;;;;;4989427;28;20126;-80
2022/07/29 04:09:39;;;;;;;4.55;1.98;;;;;;;;;;4994327;28;20042;-80
2022/07/29 04:12:04;;;;;;;8.57;2.40;;;;;;;;;;4992450;28;20042;-81
2022/07/29 04:14:31;;;;;;;5.72;2.30;;;;;;;;;;4983629;28;20058;-81
2022/07/29 04:16:56;;;;;;;7.63;2.38;;;;;;;15.14;73.16;68455.47;4984629;28;20046;-80
2022/07/29 04:19:22;;;;;;;6.07;2.78;;;;;;;15.12;73.36;68454.31;4993012;28;20049;-78
2022/07/29 04:21:47;;;;;;;6.63;2.78;;;;;;;;;;4979693;28;20273;-80
2022/07/29 04:24:12;;;;;;;5.90;3.08;;;;;;;15.13;73.88;68449.53;4993518;28;20043;-81
2022/07/29 04:26:38;;;;;;;5.00;2.90;;;;;;;15.23;73.75;68460.34;4993984;28;20043;-80
2022/07/29 04:29:03;;;;;;;6.15;2.90;;;;;;;15.21;73.36;68466.13;4982372;28;20046;-79
2022/07/29 04:31:29;;;;;;;5.82;2.60;;;;;;;15.17;73.58;68458.88;4991813;28;20078;-79
2022/07/29 04:33:54;;;;;;;5.57;2.55;;;;;;;;;;4985373;28;20034;-79
2022/07/29 04:36:19;;;;;;;5.00;2.85;;;;;;;15.03;73.94;68444.06;4976376;28;20121;-80
2022/07/29 04:38:45;;;;;;;5.80;2.42;;;;;;;15.11;73.97;68453.19;4993389;28;20070;-80
2022/07/29 04:41:10;;;;;;;6.38;2.30;;;;;;;;;;4973288;28;20061;-79
2022/07/29 04:43:36;;;;;;;6.40;2.50;;;;;;;15.12;73.68;68454.31;4987789;28;20395;-80
2022/07/29 04:46:02;;;;;;;6.85;2.65;;;;;;;15.16;73.47;68457.75;4986879;28;20278;-80
2022/07/29 04:48:28;;;;;;;5.18;2.83;;;;;;;15.22;73.31;68464.56;4992349;28;20477;-80
2022/07/29 04:50:53;;;;;;;5.50;2.80;;;;;;;15.25;73.54;68468.00;4991064;28;20066;-80
2022/07/29 04:53:19;;;;;;;6.13;2.60;;;;;;;;;;4974980;28;20109;-80
2022/07/29 04:55:45;;;;;;;4.00;2.65;;;;;;;15.22;73.62;68464.56;4975850;28;20131;-80
2022/07/29 04:58:10;;;;;;;4.75;2.33;;;;;;;15.21;73.64;68466.13;4988254;28;20188;-81
2022/07/29 05:00:36;;;;;;;7.95;2.80;;;;;;;;;;4988612;28;20520;-80
2022/07/29 05:03:01;;;;;;;4.35;2.30;;;;;;;;;;5008791;28;20046;-79
2022/07/29 05:05:27;;;;;;;5.00;2.50;;;;;;;;;;5007176;28;20525;-79
2022/07/29 05:07:52;;;;;;;5.75;2.55;;;;;;;15.21;73.50;68466.69;4994381;28;20066;-80
2022/07/29 05:10:18;;;;;;;5.03;2.72;;;;;;;15.31;73.54;68474.84;4990724;28;20030;-80
2022/07/29 05:12:43;;;;;;;5.75;2.47;;;;;;;15.26;73.59;68472.38;4989063;28;20506;-79
2022/07/29 05:15:09;;;;;;;5.03;2.60;;;;;;;15.26;73.44;68474.50;4995911;28;20044;-80
2022/07/29 05:17:34;;;;;;;8.07;2.60;;;;;;;15.24;73.91;68461.50;4985075;28;20061;-80
2022/07/29 05:20:00;;;;;;;5.00;2.28;;;;;;;15.22;73.67;68465.16;4984535;28;20105;-80
2022/07/29 05:22:25;;;;;;;3.42;2.13;;;;;;;;;;4972949;28;20501;-80
2022/07/29 05:24:50;;;;;;;4.13;2.40;;;;;;;15.33;74.37;68477.69;4999771;28;20050;-78
2022/07/29 05:27:16;;;;;;;4.10;2.30;;;;;;;15.31;74.35;68470.03;4991311;28;20073;-80
2022/07/29 05:29:41;;;;;;;5.88;2.53;;;;;;;15.33;74.70;68477.09;4986268;28;20035;-80
2022/07/29 05:32:06;;;;;;;4.13;2.40;;;;;;;15.42;75.27;68486.78;4973860;28;20066;-80
2022/07/29 05:34:32;;;;;;;5.28;2.70;;;;;;;15.41;74.98;68480.28;4992164;28;20049;-80
2022/07/29 05:36:58;;;;;;;4.25;2.20;;;;;;;15.38;76.04;68477.44;4973756;28;20062;-80
2022/07/29 05:39:24;;;;;;;6.60;3.33;;;;;;;15.41;76.62;68485.66;4977900;28;20030;-80
2022/07/29 05:41:49;;;;;;;5.35;2.80;;;;;;;;;;4988800;28;20149;-80
2022/07/29 05:44:14;;;;;;;5.43;2.50;;;;;;;;;;4983908;28;20046;-80
2022/07/29 05:46:40;;;;;;;4.65;2.38;;;;;;;15.36;75.60;68475.16;4986068;28;20137;-80
2022/07/29 05:49:06;;;;;;;4.32;2.47;;;;;;;15.33;75.51;68477.69;4989295;28;20513;-80
2022/07/29 05:51:32;;;;;;;7.57;2.75;;;;;;;15.35;76.76;68482.06;4992611;28;20056;-80
2022/07/29 05:53:57;;;;;;;6.53;3.53;;;;;;;;;;4989572;28;20043;-80
2022/07/29 05:56:23;;;;;;;8.55;2.90;;;;;;;15.37;76.89;68476.31;4992164;28;20073;-80
2022/07/29 05:58:48;;;;;;;7.70;3.22;;;;;;;15.37;76.70;68481.66;4968318;28;20085;-80
2022/07/29 06:01:14;;;;;;;4.70;2.88;;;;;;;;;;4986790;28;20050;-81
2022/07/29 06:03:40;;;;;;;6.82;3.00;;;;;;;;;;4990487;28;20058;-81
2022/07/29 06:06:07;;;;;;;5.40;3.10;;;;;;;15.32;78.71;68471.16;4985397;28;20038;-81
2022/07/29 06:08:33;;;;;;;4.60;3.00;;;;;;;15.29;77.92;68472.56;4989996;28;20049;-81
2022/07/29 06:10:58;;;;;;;5.28;2.70;;;;;;;;;;4976050;28;20038;-79
2022/07/29 06:13:24;;;;;;;5.50;3.38;;;;;;;15.19;78.82;68461.16;4976006;28;20042;-80
2022/07/29 06:15:49;;;;;;;4.22;2.78;;;;;;;15.26;81.09;68471.81;4974273;28;20129;-80
2022/07/29 06:18:15;;;;;;;5.03;3.20;;;;;;;;;;4951875;28;20114;-79
2022/07/29 06:20:40;;;;;;;7.07;3.42;;;;;;;14.99;82.27;68439.53;4976492;28;20073;-79
2022/07/29 06:23:05;;;;;;;6.55;3.83;;;;;;;;;;4987645;28;20042;-78
2022/07/29 06:25:37;;;;;;;7.70;3.60;;;;;;;14.94;83.92;68433.25;4987951;28;20062;-79
2022/07/29 06:28:02;;;;;;;6.47;3.40;;;;;;;;;;4987930;28;20661;-80
2022/07/29 06:30:29;;;;;;;6.13;3.38;;;;;;;14.82;85.33;68420.75;4987061;28;20129;-79
2022/07/29 06:32:55;;;;;;;7.63;3.85;;;;;;;14.95;85.13;68434.97;4986998;28;20057;-79
2022/07/29 06:35:21;;;;;;;5.97;4.13;;;;;;;14.88;85.24;68422.22;4988355;28;20042;-78
2022/07/29 06:37:46;;;;;;;5.55;3.40;;;;;;;14.93;84.35;68438.03;4983854;28;20050;-79
2022/07/29 06:42:55;;;;;;;7.82;3.50;;;;;;;15.01;85.74;68435.88;4986544;28;20049;-80
2022/07/29 06:45:21;;;;;;;7.88;3.83;;;;;;;;;;4985462;28;20039;-80
2022/07/29 06:47:46;;;;;;;6.47;3.63;;;;;;;;;;4985010;28;20050;-79
2022/07/29 06:50:12;;;;;;;6.80;4.18;;;;;;;14.69;87.84;68408.59;4984601;28;20053;-80
2022/07/29 06:52:38;;;;;;;7.35;3.80;;;;;;;;;;4972565;28;20042;-79
2022/07/29 06:55:04;;;;;;;7.70;4.40;;;;;;;14.68;88.16;68406.91;4990062;28;20046;-79
2022/07/29 06:57:29;;;;;;;6.00;4.30;;;;;;;;;;4986238;28;20063;-80
2022/07/29 06:59:56;;;;;;;10.13;4.47;;;;;;;;;;4986142;28;20042;-80
2022/07/29 07:02:22;;;;;;;7.78;4.70;;;;;;;14.80;88.64;68412.53;4988492;28;20053;-80
2022/07/29 07:04:47;;;;;;;8.05;5.00;;;;;;;;;;4993109;28;20038;-80
2022/07/29 07:07:12;;;;;;;8.82;4.82;;;;;;;14.71;89.19;68407.66;4989387;28;20126;-80
2022/07/29 07:09:38;;;;;;;9.63;5.07;;;;;;;;;;4988273;28;20117;-80
2022/07/29 07:12:03;;;;;;;7.55;4.32;;;;;;;14.80;88.81;68409.84;4985871;28;20041;-79
2022/07/29 07:14:29;;;;;;;6.30;4.63;;;;;;;;;;4981720;28;20436;-79
2022/07/29 07:16:54;;;;;;;6.95;4.90;;;;;;;14.74;88.81;68411.06;4979824;28;20557;-80
2022/07/29 07:19:19;;;;;;;9.02;5.78;;;;;;;14.81;89.65;68419.03;4988313;28;20054;-78
2022/07/29 07:21:45;;;;;;;13.32;4.90;;;;;;;14.82;90.95;68414.81;4992882;28;20046;-80
2022/07/29 07:24:10;;;;;;;8.50;5.30;;;;;;;14.79;90.32;68416.75;4970487;28;20046;-80
2022/07/29 07:26:36;;;;;;;9.05;5.50;;;;;;;14.84;92.41;68422.44;4994274;28;20126;-79
2022/07/29 07:29:01;;;;;;;7.85;5.68;;;;;;;14.81;93.03;68419.03;4993944;28;20069;-80
2022/07/29 07:31:27;;;;;;;6.78;5.80;;;;;;;14.66;94.20;68397.72;4976391;28;20061;-80
2022/07/29 07:33:53;;;;;;;7.70;5.80;;;;;;;14.66;95.38;68402.50;4994399;28;20073;-78
2022/07/29 07:36:18;;;;;;;9.25;5.78;;;;;;;;;;4992596;28;20038;-79
2022/07/29 07:38:44;;;;;;;8.15;5.68;;;;;;;14.60;94.69;68396.25;4992889;28;20559;-78
2022/07/29 07:41:09;;;;;;;7.43;5.55;;;;;;;14.64;94.20;68400.22;4992132;28;20161;-79
2022/07/29 07:43:35;;;;;;;8.52;4.72;;;;;;;14.68;92.91;68398.88;4992632;28;20054;-78
2022/07/29 07:46:00;;;;;;;6.70;4.65;;;;;;;;;;4978245;28;20074;-81
2022/07/29 07:48:25;;;;;;;7.60;4.90;;;;;;;;;;4992221;28;20042;-80
2022/07/29 07:50:51;;;;;;;8.10;5.25;;;;;;;14.73;92.44;68409.91;4985100;28;20054;-76
2022/07/29 07:53:16;;;;;;;8.07;4.72;;;;;;;14.65;92.83;68401.38;4987325;28;20054;-76
2022/07/29 07:55:42;;;;;;;8.02;4.32;;;;;;;;;;4992169;28;20046;-77
2022/07/29 07:58:08;;;;;;;9.05;5.30;;;;;;;14.60;94.01;68396.25;4990740;28;20105;-78
2022/07/29 08:00:34;;;;;;;9.38;5.63;;;;;;;14.76;93.58;68413.91;4990317;28;20181;-77
2022/07/29 08:02:59;;;;;;;8.18;5.00;;;;;;;14.91;93.41;68429.84;4969346;28;20061;-77
2022/07/29 08:05:25;;;;;;;10.55;5.00;;;;;;;14.97;93.53;68431.31;4986379;28;20039;-76
2022/07/29 08:07:50;;;;;;;9.48;5.40;;;;;;;;;;4989909;28;20707;-78
2022/07/29 08:13:02;;;;;;;7.75;5.88;;;;;;;;;;4989148;28;20061;-76
2022/07/29 08:15:27;;;;;;;9.20;5.85;;;;;;;;;;4991714;28;20069;-77
2022/07/29 08:17:52;;;;;;;8.02;5.82;;;;;;;15.03;94.38;68449.44;4983616;28;20079;-77
2022/07/29 08:20:17;;;;;;;8.32;6.00;;;;;;;;;;4986233;28;20046;-77
2022/07/29 08:22:43;;;;;;;9.40;6.20;;;;;;;14.95;93.96;68429.59;4977322;28;20178;-76
2022/07/29 08:25:08;;;;;;;9.93;5.70;;;;;;;14.94;94.72;68435.94;4988728;28;20343;-77
2022/07/29 08:27:34;;;;;;;8.85;5.60;;;;;;;14.97;93.95;68436.69;4990760;28;20050;-76
2022/07/29 08:29:59;;;;;;;7.38;5.75;;;;;;;15.11;94.15;68447.25;4986186;28;20040;-77
2022/07/29 08:32:24;;;;;;;8.95;6.13;;;;;;;;;;4989311;28;20132;-77
2022/07/29 08:34:50;;;;;;;9.27;6.63;;;;;;;15.26;93.77;68464.34;4993259;28;20053;-75
2022/07/29 08:37:15;;;;;;;8.50;5.60;;;;;;;15.27;92.48;68464.91;4973531;28;20083;-77
2022/07/29 08:39:41;;;;;;;8.05;5.57;;;;;;;15.26;92.31;68469.13;4991533;28;20042;-78
2022/07/29 08:42:06;;;;;;;8.65;5.30;;;;;;;;;;4976511;28;20062;-76
2022/07/29 08:44:32;;;;;;;9.60;6.10;;;;;;;;;;4992290;28;20049;-78
2022/07/29 08:46:57;;;;;;;8.57;6.25;;;;;;;;;;4993947;28;20112;-78
2022/07/29 08:49:23;;;;;;;9.63;6.38;;;;;;;;;;4985050;28;20047;-78
2022/07/29 08:51:48;;;;;;;9.60;5.57;;;;;;;;;;4989545;28;20042;-78
2022/07/29 08:54:16;;;;;;;9.83;5.73;;;;;;;;;;4976332;28;20280;-76
2022/07/29 08:56:41;;;;;;;7.75;5.50;;;;;;;;;;4991077;28;20689;-76
2022/07/29 08:59:09;;;;;;;9.18;5.78;;;;;;;15.38;93.31;68482.22;4992187;28;20039;-77
2022/07/29 09:01:38;;;;;;;9.35;6.32;;;;;;;15.37;92.82;68481.09;4981175;28;20458;-77
2022/07/29 09:04:07;;;;;;;8.48;6.45;;;;;;;15.23;93.75;68460.34;4985734;28;20033;-77
2022/07/29 09:06:33;;;;;;;;;;;;;;;;;;4979221;28;20041;-77
2022/07/29 09:09:00;;;;;;;11.38;6.60;;;;;;;15.01;95.70;68436.44;4984017;28;19917;-76
2022/07/29 09:11:25;;;;;;;9.52;6.85;;;;;;;14.99;96.57;68441.63;4966472;28;20043;-75
2022/07/29 09:13:51;;;;;;;9.15;6.63;;;;;;;14.99;97.19;68439.53;4989484;28;20045;-77
2022/07/29 09:16:16;;;;;;;8.88;7.97;;;;;;;15.03;98.35;68444.06;4985382;28;20085;-77
2022/07/29 09:18:44;;;;;;;10.85;7.93;;;;;;;15.12;99.85;68454.31;4985054;28;20037;-76
2022/07/29 09:24:03;;;;;;;12.88;7.82;;;;;;;15.04;99.22;68445.22;4982043;28;20061;-77
2022/07/29 09:26:31;;;;;;;11.95;8.13;;;;;;;14.98;98.19;68432.44;4983458;28;20037;-76
2022/07/29 09:28:57;;;;;;;10.98;8.30;;;;;;;15.01;99.00;68441.22;4994318;28;20050;-79
2022/07/29 09:31:33;;;;;;;15.00;8.20;;;;;;;;;;4977251;28;20407;-76
2022/07/29 09:34:00;;;;;;;11.00;8.60;;;;;;;15.09;100.00;68450.34;5004720;23;20562;-78
2022/07/29 09:36:26;;;;;;;12.85;9.32;;;;;;;14.98;100.00;68438.38;5001192;28;20037;-78
2022/07/29 09:39:02;;;;;;;14.30;10.20;;;;;;;14.90;100.00;68429.25;4987595;28;20045;-78
2022/07/29 09:41:28;;;;;;;12.55;11.13;;;;;;;;;;4986709;28;20042;-78
2022/07/29 09:43:54;;;;;;;16.08;10.23;;;;;;;;;;5000365;28;20069;-78
2022/07/29 09:46:19;;;;;;;14.02;11.77;;;;;;;;;;5000732;28;20045;-78
2022/07/29 09:48:45;;;;;;;15.70;10.70;;;;;;;14.93;100.00;68434.78;4999415;28;20128;-79
2022/07/29 09:51:20;;;;;;;12.60;10.07;;;;;;;14.98;100.00;68433.00;4994107;28;20129;-78
2022/07/29 09:53:46;;;;;;;16.63;10.90;;;;;;;15.10;100.00;68451.47;4996594;28;20061;-78
2022/07/29 09:56:11;;;;;;;13.23;10.60;;;;;;;14.99;100.00;68439.53;4993343;28;20049;-78
2022/07/29 09:58:36;;;;;;;13.75;10.90;;;;;;;15.05;100.00;68440.44;4991052;28;20520;-78
2022/07/29 10:01:03;;;;;;;15.98;11.50;;;;;;;15.20;100.00;68462.88;4999900;28;20092;-78
2022/07/29 10:03:29;;;;;;;12.15;10.88;;;;;;;14.98;100.00;68438.38;5003474;28;20528;-78
2022/07/29 10:06:11;;;;;;;13.15;10.98;;;;;;;14.91;100.00;68430.41;5006812;28;20040;-78
2022/07/29 10:08:37;;;;;;;15.27;11.18;;;;;;;15.07;100.00;68453.97;4971645;28;20045;-79
2022/07/29 10:11:12;;;;;;;17.25;11.63;;;;;;;15.09;100.00;68450.34;4985343;28;20122;-78
2022/07/29 10:13:39;;;;;;;16.33;12.30;;;;;;;15.03;100.00;68443.50;5003718;28;20050;-79
2022/07/29 10:16:05;;;;;;;14.18;12.40;;;;;;;14.97;100.00;68437.25;5007261;28;20054;-78
2022/07/29 10:18:31;;;;;;;15.77;12.55;;;;;;;;;;5007080;28;20038;-78
2022/07/29 10:20:57;;;;;;;15.70;12.27;;;;;;;15.21;100.00;68463.44;5010396;28;20563;-78
2022/07/29 10:23:23;;;;;;;17.30;12.50;;;;;;;15.22;100.00;68470.53;5007900;28;20053;-78
2022/07/29 10:25:49;;;;;;;15.15;11.45;;;;;;;15.38;100.00;68482.81;4986393;28;20042;-78
2022/07/29 10:28:14;;;;;;;16.88;12.35;;;;;;;;;;5000391;28;20117;-79
2022/07/29 10:30:40;;;;;;;16.52;12.77;;;;;;;;;;5003951;28;20048;-78
2022/07/29 10:33:41;;;;;;;17.65;11.73;;;;;;;15.48;100.00;68496.88;5003221;28;20057;-79
2022/07/29 10:36:12;;;;;;;15.02;11.45;;;;;;;;;;5000878;28;20050;-79
2022/07/29 10:39:15;;;;;;;13.75;11.15;;;;;;;15.51;100.00;68491.69;5002297;28;20116;-78
2022/07/29 10:42:01;;;;;;;14.63;11.32;;;;;;;15.52;100.00;68498.75;4969014;28;20956;-79
2022/07/29 10:44:27;;;;;;;14.68;11.13;;;;;;;15.52;100.00;68498.75;5007248;28;20038;-78
2022/07/29 10:46:54;;;;;;;14.77;12.55;;;;;;;;;;4992822;28;20038;-78
2022/07/29 10:49:21;;;;;;;15.05;11.45;;;;;;;15.65;100.00;68515.69;5010392;28;20042;-79
2022/07/29 10:51:52;;;;;;;16.35;11.48;;;;;;;;;;4996957;28;20053;-78
2022/07/29 10:54:35;;;;;;;13.43;11.68;;;;;;;15.62;100.00;68512.25;5007885;28;20057;-79
2022/07/29 10:57:31;;;;;;;17.02;11.38;;;;;;;15.62;100.00;68509.00;5004885;28;20150;-78
2022/07/29 11:00:08;;;;;;;15.13;11.35;;;;;;;;;;4981598;28;20054;-79
2022/07/29 11:02:36;;;;;;;13.38;10.20;;;;;;;;;;4985838;28;20087;-78
2022/07/29 11:05:03;;;;;;;13.50;11.30;;;;;;;15.67;100.00;68514.69;4985502;28;20627;-79
2022/07/29 11:07:29;;;;;;;15.88;11.45;;;;;;;15.61;100.00;68508.44;5007757;28;20409;-78
2022/07/29 11:10:13;;;;;;;14.68;11.77;;;;;;;15.51;100.00;68497.06;5003768;28;20045;-79
2022/07/29 11:12:38;;;;;;;16.88;11.48;;;;;;;15.57;100.00;68499.09;4986963;28;20046;-78
2022/07/29 11:15:05;;;;;;;16.08;10.95;;;;;;;15.57;100.00;68499.09;4988098;28;20413;-79
2022/07/29 11:17:49;;;;;;;13.00;11.43;;;;;;;;;;5007104;28;20077;-79
2022/07/29 11:20:41;;;;;;;15.48;12.27;;;;;;;15.55;100.00;68502.16;5005516;28;20038;-79
2022/07/29 11:23:28;;;;;;;14.68;11.23;;;;;;;15.56;100.00;68502.72;5001427;28;20042;-78
2022/07/29 11:26:25;;;;;;;15.38;11.00;;;;;;;15.48;100.00;68496.31;5001156;28;20070;-78
2022/07/29 11:28:52;;;;;;;17.48;12.32;;;;;;;;;;4978894;28;20168;-79
2022/07/29 11:31:37;;;;;;;14.15;11.40;;;;;;;15.66;100.00;68508.78;5000226;28;20044;-79
2022/07/29 11:34:27;;;;;;;14.70;11.40;;;;;;;15.70;100.00;68518.16;4995331;28;20049;-79
2022/07/29 11:37:13;;;;;;;14.23;11.02;;;;;;;15.74;100.00;68517.34;4980451;28;20050;-79
2022/07/29 11:39:59;;;;;;;13.65;11.93;;;;;;;15.81;100.00;68530.69;4972580;28;20501;-80
2022/07/29 11:42:24;;;;;;;14.68;11.77;;;;;;;15.76;100.00;68519.59;4993492;28;20534;-80
2022/07/29 11:44:58;;;;;;;16.67;12.57;;;;;;;;;;5009617;28;20045;-80
2022/07/29 11:47:28;;;;;;;14.50;12.32;;;;;;;;;;5009485;28;20103;-79
2022/07/29 11:49:56;;;;;;;13.32;11.55;;;;;;;15.91;100.00;68542.09;4984022;28;20767;-80
2022/07/29 11:52:22;;;;;;;12.65;10.60;;;;;;;;;;5007682;28;20118;-79
2022/07/29 11:54:49;;;;;;;15.38;11.52;;;;;;;16.13;100.00;68566.00;5011245;28;20042;-79
2022/07/29 11:57:17;;;;;;;13.80;11.52;;;;;;;16.14;100.00;68567.16;4989456;28;20077;-79
2022/07/29 11:59:43;;;;;;;16.42;11.18;;;;;;;;;;5009841;28;20049;-78
2022/07/29 12:02:09;;;;;;;13.20;10.57;;;;;;;16.53;100.00;68605.09;5006582;28;20571;-80
2022/07/29 12:04:56;;;;;;;14.90;10.85;;;;;;;16.77;100.00;68632.47;5010064;28;20049;-80
2022/07/29 12:07:27;;;;;;;11.32;9.70;;;;;;;;;;5004678;28;20087;-80
2022/07/29 12:09:54;;;;;;;11.70;8.98;;;;;;;17.26;100.00;68686.66;5009255;28;20503;-80
2022/07/29 12:12:19;;;;;;;13.38;9.25;;;;;;;;;;5006352;28;20080;-80
2022/07/29 12:14:47;;;;;;;12.18;8.00;;;;;;;18.08;100.00;68778.53;4990748;28;20050;-80
2022/07/29 12:17:25;;;;;;;10.20;7.47;;;;;;;18.19;96.98;68788.41;5007680;28;20173;-79
2022/07/29 12:19:53;;;;;;;10.27;7.20;;;;;;;18.37;94.95;68810.50;5009152;28;20097;-80
2022/07/29 12:22:28;;;;;;;11.43;7.45;;;;;;;18.37;94.98;68815.91;5005928;28;20117;-79
2022/07/29 12:24:54;;;;;;;9.65;6.78;;;;;;;;;;5004909;28;20089;-79
2022/07/29 12:27:20;;;;;;;9.13;6.35;;;;;;;18.67;91.09;68844.78;5006661;28;21597;-80
2022/07/29 12:29:54;;;;;;;9.93;6.38;;;;;;;;;;5008873;28;20100;-79
2022/07/29 12:32:19;;;;;;;8.52;6.72;;;;;;;;;;5004177;28;20129;-79
2022/07/29 12:34:45;;;;;;;10.38;6.68;;;;;;;19.00;88.10;68881.34;5008468;28;20125;-80
2022/07/29 12:37:11;;;;;;;10.85;6.55;;;;;;;18.92;88.38;68872.75;4989724;28;20049;-79
2022/07/29 12:39:37;;;;;;;10.02;6.90;;;;;;;19.01;88.68;68879.22;5006471;28;20069;-79
2022/07/29 12:42:10;;;;;;;9.50;6.25;;;;;;;;;;5004404;28;20054;-79